Time;durP1;ratioP1;P1;durP2;ratioP2;P2;SDS_P1;SDS_P2;PMS_P1;PMS_P2;Temp;Humidity;BMP_temperature;BMP_pressure;BME280_temperature;BME280_humidity;BME280_pressure;Samples;Min_cycle;Max_cycle;Signal;HPM_P1;HPM_P2
2023/03/30 00:01:26;;;;;;;13.87;2.90;;;12.60;99.90;;;;;;487131;244;28286;-75
2023/03/30 00:03:29;;;;;;;11.53;3.20;;;;;;;;;;487356;244;28569;-76
2023/03/30 00:05:30;;;;;;;11.83;3.13;;;12.60;99.90;;;;;;487291;244;26926;-76
2023/03/30 00:07:31;;;;;;;10.23;2.80;;;12.60;99.90;;;;;;487362;244;28355;-75
2023/03/30 00:09:32;;;;;;;18.70;3.20;;;12.60;99.90;;;;;;487342;244;27960;-75
2023/03/30 00:11:34;;;;;;;8.37;2.53;;;12.60;99.90;;;;;;487332;244;28448;-75
2023/03/30 00:13:35;;;;;;;8.33;2.80;;;12.60;99.90;;;;;;487315;244;28443;-76
2023/03/30 00:15:36;;;;;;;14.57;3.47;;;12.60;99.90;;;;;;487286;244;28481;-75
2023/03/30 00:17:37;;;;;;;8.30;2.43;;;12.50;99.90;;;;;;487294;244;28457;-76
2023/03/30 00:19:39;;;;;;;7.40;2.70;;;12.40;99.90;;;;;;487334;244;28821;-76
2023/03/30 00:21:40;;;;;;;7.37;3.17;;;12.50;99.90;;;;;;487265;244;28460;-76
2023/03/30 00:23:41;;;;;;;6.50;2.67;;;12.50;99.90;;;;;;487356;244;28824;-75
2023/03/30 00:25:42;;;;;;;8.53;3.00;;;12.50;99.90;;;;;;487303;244;29011;-76
2023/03/30 00:27:44;;;;;;;7.90;3.17;;;12.50;99.90;;;;;;487383;244;28382;-75
2023/03/30 00:29:45;;;;;;;7.90;2.80;;;12.50;99.90;;;;;;487373;244;28454;-76
2023/03/30 00:31:46;;;;;;;12.10;3.47;;;12.40;99.90;;;;;;487358;244;28529;-76
2023/03/30 00:33:47;;;;;;;8.67;2.90;;;12.50;99.90;;;;;;487359;244;28233;-76
2023/03/30 00:35:49;;;;;;;5.17;2.30;;;12.60;99.90;;;;;;487303;244;28378;-76
2023/03/30 00:37:50;;;;;;;9.93;2.93;;;12.70;99.90;;;;;;487346;244;28833;-76
2023/03/30 00:39:52;;;;;;;11.57;3.50;;;12.90;99.90;;;;;;487271;244;28235;-76
2023/03/30 00:41:54;;;;;;;10.43;3.80;;;;;;;;;;487247;243;28775;-75
2023/03/30 00:43:55;;;;;;;11.03;3.17;;;12.90;99.90;;;;;;487091;243;26552;-76
2023/03/30 00:45:56;;;;;;;8.67;3.30;;;13.00;99.90;;;;;;487283;244;29178;-76
2023/03/30 00:47:59;;;;;;;7.70;2.90;;;;;;;;;;487299;244;28860;-76
2023/03/30 00:50:00;;;;;;;10.83;2.90;;;13.10;99.90;;;;;;487244;244;26508;-76
2023/03/30 00:52:02;;;;;;;6.30;2.47;;;13.10;99.90;;;;;;487214;243;28479;-75
2023/03/30 00:54:02;;;;;;;14.30;3.77;;;13.20;99.90;;;;;;487154;244;28018;-75
2023/03/30 00:56:03;;;;;;;16.07;2.63;;;13.00;99.90;;;;;;487283;244;28177;-75
2023/03/30 00:58:05;;;;;;;10.30;2.90;;;13.30;99.90;;;;;;487293;244;28286;-75
2023/03/30 01:00:07;;;;;;;16.43;2.97;;;13.20;99.90;;;;;;487280;244;28373;-76
2023/03/30 01:02:07;;;;;;;16.53;3.47;;;13.30;99.90;;;;;;487254;244;28657;-75
2023/03/30 01:04:09;;;;;;;15.63;3.20;;;13.40;99.90;;;;;;487320;244;28757;-76
2023/03/30 01:06:10;;;;;;;8.93;2.60;;;13.40;99.90;;;;;;487267;244;28669;-76
2023/03/30 01:08:12;;;;;;;14.87;3.17;;;13.40;99.90;;;;;;487334;244;28214;-76
2023/03/30 01:10:12;;;;;;;11.17;3.70;;;13.40;99.90;;;;;;487245;244;28232;-76
2023/03/30 01:12:15;;;;;;;12.13;2.80;;;;;;;;;;487315;244;28172;-76
2023/03/30 01:14:16;;;;;;;13.13;2.80;;;13.50;99.90;;;;;;487300;244;27109;-75
2023/03/30 01:16:21;;;;;;;13.47;3.00;;;13.50;99.90;;;;;;487305;244;28715;-76
2023/03/30 01:18:22;;;;;;;6.80;2.47;;;13.50;99.90;;;;;;486655;244;28172;-76
2023/03/30 01:20:20;;;;;;;9.77;2.80;;;13.50;99.90;;;;;;487034;244;28141;-77
2023/03/30 01:22:21;;;;;;;11.37;3.10;;;13.60;99.90;;;;;;487344;244;28140;-76
2023/03/30 01:24:22;;;;;;;12.67;3.60;;;13.50;99.90;;;;;;487314;244;28118;-75
2023/03/30 01:26:24;;;;;;;10.67;3.50;;;13.60;99.90;;;;;;487365;244;28155;-75
2023/03/30 01:28:25;;;;;;;9.70;2.90;;;13.70;99.90;;;;;;487332;244;28188;-75
2023/03/30 01:30:26;;;;;;;6.93;3.20;;;13.70;99.90;;;;;;487364;244;28750;-76
2023/03/30 01:32:27;;;;;;;9.97;2.90;;;13.70;99.90;;;;;;487329;244;28688;-75
2023/03/30 01:34:28;;;;;;;16.10;3.17;;;13.70;99.90;;;;;;487321;244;28583;-76
2023/03/30 01:36:30;;;;;;;15.90;3.70;;;13.60;99.90;;;;;;487379;244;28683;-76
2023/03/30 01:38:32;;;;;;;12.07;3.20;;;;;;;;;;487366;244;28268;-75
2023/03/30 01:40:33;;;;;;;11.17;3.50;;;13.70;99.90;;;;;;487356;244;26422;-76
2023/03/30 01:42:35;;;;;;;13.87;2.97;;;13.70;99.90;;;;;;487364;244;28230;-75
2023/03/30 01:44:36;;;;;;;11.20;3.17;;;13.70;99.90;;;;;;487300;244;28649;-76
2023/03/30 01:46:39;;;;;;;11.97;3.73;;;13.60;99.90;;;;;;487374;244;28649;-76
2023/03/30 01:48:44;;;;;;;6.77;3.23;;;13.60;99.90;;;;;;487277;244;28248;-75
2023/03/30 01:50:40;;;;;;;12.43;2.90;;;13.50;99.90;;;;;;486997;244;28367;-76
2023/03/30 01:52:41;;;;;;;11.03;3.37;;;13.30;99.90;;;;;;487351;244;28212;-76
2023/03/30 01:54:42;;;;;;;7.83;2.83;;;13.20;99.90;;;;;;487310;244;28151;-76
2023/03/30 01:56:43;;;;;;;13.53;3.50;;;13.00;99.90;;;;;;487373;244;28453;-76
2023/03/30 01:58:45;;;;;;;8.60;2.63;;;13.00;99.90;;;;;;487347;244;28827;-75
2023/03/30 02:00:49;;;;;;;12.70;2.97;;;12.90;99.90;;;;;;487305;244;28234;-76
2023/03/30 02:02:48;;;;;;;8.23;3.10;;;;;;;;;;487233;244;28677;-75
2023/03/30 02:04:52;;;;;;;9.20;3.47;;;;;;;;;;487240;244;26583;-76
2023/03/30 02:06:53;;;;;;;12.57;3.30;;;12.80;99.90;;;;;;487090;244;27776;-76
2023/03/30 02:08:53;;;;;;;12.27;3.13;;;12.80;99.90;;;;;;487357;244;28552;-76
2023/03/30 02:10:55;;;;;;;9.43;3.23;;;12.80;99.90;;;;;;487380;244;28361;-75
2023/03/30 02:12:56;;;;;;;22.40;3.27;;;12.80;99.90;;;;;;487331;243;28245;-75
2023/03/30 02:14:57;;;;;;;9.13;2.63;;;12.80;99.90;;;;;;487323;244;28254;-76
2023/03/30 02:16:59;;;;;;;12.30;3.17;;;12.70;99.90;;;;;;487318;244;28160;-76
2023/03/30 02:19:00;;;;;;;8.60;3.23;;;12.80;99.90;;;;;;487373;244;28867;-76
2023/03/30 02:21:02;;;;;;;12.53;3.10;;;12.80;99.90;;;;;;487380;244;28493;-75
2023/03/30 02:23:04;;;;;;;9.67;3.10;;;12.70;99.90;;;;;;487330;244;28439;-76
2023/03/30 02:25:05;;;;;;;9.80;3.33;;;12.80;99.90;;;;;;487183;244;28514;-75
2023/03/30 02:27:06;;;;;;;8.30;3.03;;;;;;;;;;487239;244;28800;-76
2023/03/30 02:29:07;;;;;;;9.43;2.80;;;12.70;99.90;;;;;;487344;244;26571;-75
2023/03/30 02:31:08;;;;;;;13.40;3.23;;;12.70;99.90;;;;;;487307;244;28081;-75
2023/03/30 02:33:10;;;;;;;15.10;3.80;;;12.70;99.90;;;;;;487303;244;28156;-75
2023/03/30 02:35:11;;;;;;;18.17;4.00;;;12.70;99.90;;;;;;487285;244;28394;-75
2023/03/30 02:37:13;;;;;;;15.50;3.30;;;12.60;99.90;;;;;;487328;244;28697;-76
2023/03/30 02:39:13;;;;;;;15.40;3.33;;;12.60;99.90;;;;;;487353;244;28701;-76
2023/03/30 02:41:15;;;;;;;13.73;3.70;;;12.50;99.90;;;;;;487366;244;28097;-76
2023/03/30 02:43:16;;;;;;;9.70;3.33;;;12.50;99.90;;;;;;487347;244;28603;-75
2023/03/30 02:45:17;;;;;;;10.17;3.00;;;12.50;99.90;;;;;;487333;244;28167;-76
2023/03/30 02:47:18;;;;;;;10.70;3.40;;;12.50;99.90;;;;;;487336;244;28403;-75
2023/03/30 02:49:20;;;;;;;10.83;3.40;;;12.40;99.90;;;;;;487343;244;28567;-76
2023/03/30 02:51:21;;;;;;;14.10;2.90;;;12.50;99.90;;;;;;487341;244;28217;-76
2023/03/30 02:53:23;;;;;;;16.53;3.27;;;12.50;99.90;;;;;;487323;244;28163;-76
2023/03/30 02:55:23;;;;;;;15.77;3.90;;;12.40;99.90;;;;;;487258;244;28582;-76
2023/03/30 02:57:25;;;;;;;10.00;3.30;;;12.50;99.90;;;;;;487345;244;28809;-75
2023/03/30 02:59:26;;;;;;;11.57;2.83;;;12.50;99.90;;;;;;487361;244;29276;-75
2023/03/30 03:01:27;;;;;;;11.40;3.00;;;12.50;99.90;;;;;;487362;244;28137;-76
2023/03/30 03:03:30;;;;;;;9.07;3.43;;;12.40;99.90;;;;;;487349;244;28081;-76
2023/03/30 03:05:31;;;;;;;6.60;2.60;;;12.40;99.90;;;;;;487230;244;28890;-76
2023/03/30 03:07:32;;;;;;;8.10;2.77;;;12.40;99.90;;;;;;487285;244;28475;-76
2023/03/30 03:09:32;;;;;;;11.07;3.50;;;12.40;99.90;;;;;;487277;244;28345;-75
2023/03/30 03:11:33;;;;;;;13.13;3.30;;;12.40;99.90;;;;;;487369;244;28843;-75
2023/03/30 03:13:38;;;;;;;10.83;3.57;;;12.40;99.90;;;;;;487338;244;29340;-76
2023/03/30 03:15:36;;;;;;;9.70;2.70;;;12.40;99.90;;;;;;486754;244;28920;-76
2023/03/30 03:17:37;;;;;;;7.80;3.60;;;12.40;99.90;;;;;;487346;244;28986;-76
2023/03/30 03:19:38;;;;;;;16.20;4.13;;;12.40;99.90;;;;;;487348;244;28559;-75
2023/03/30 03:21:41;;;;;;;9.50;3.00;;;;;;;;;;487358;244;28381;-76
2023/03/30 03:23:42;;;;;;;9.10;3.57;;;12.30;99.90;;;;;;487375;244;26832;-76
2023/03/30 03:25:43;;;;;;;8.37;3.07;;;12.20;99.90;;;;;;487300;244;28698;-76
2023/03/30 03:27:45;;;;;;;13.30;3.80;;;12.20;99.90;;;;;;487369;244;28759;-76
2023/03/30 03:29:46;;;;;;;6.70;3.40;;;12.10;99.90;;;;;;487363;244;29127;-76
2023/03/30 03:31:47;;;;;;;11.67;3.07;;;12.10;99.90;;;;;;487379;244;28025;-76
2023/03/30 03:33:49;;;;;;;10.70;3.33;;;12.00;99.90;;;;;;487354;244;28850;-76
2023/03/30 03:35:52;;;;;;;16.63;3.50;;;12.10;99.90;;;;;;487319;244;27984;-75
2023/03/30 03:37:51;;;;;;;10.77;3.00;;;12.00;99.90;;;;;;487217;244;28372;-76
2023/03/30 03:39:52;;;;;;;11.43;3.80;;;12.10;99.90;;;;;;487345;244;28176;-76
2023/03/30 03:41:53;;;;;;;8.43;3.30;;;12.10;99.90;;;;;;487359;244;28619;-76
2023/03/30 03:43:55;;;;;;;8.70;2.80;;;12.10;99.90;;;;;;487330;244;29236;-76
2023/03/30 03:45:57;;;;;;;13.73;3.40;;;12.00;99.90;;;;;;487334;244;29253;-75
2023/03/30 03:47:57;;;;;;;14.70;3.80;;;12.00;99.90;;;;;;487331;244;28801;-76
2023/03/30 03:50:02;;;;;;;14.60;3.80;;;12.10;99.90;;;;;;487356;243;28500;-76
2023/03/30 03:52:00;;;;;;;13.00;3.50;;;12.20;99.90;;;;;;487119;244;28572;-76
2023/03/30 03:54:01;;;;;;;8.63;2.87;;;12.30;99.90;;;;;;487334;244;28450;-76
2023/03/30 03:56:02;;;;;;;9.50;3.00;;;12.30;99.90;;;;;;487319;244;28039;-76
2023/03/30 03:58:03;;;;;;;6.40;2.70;;;12.30;99.90;;;;;;487359;244;28784;-75
2023/03/30 04:00:14;;;;;;;12.10;3.17;;;12.30;99.90;;;;;;487348;244;28440;-76
2023/03/30 04:02:06;;;;;;;25.43;3.93;;;12.30;99.90;;;;;;486634;244;28354;-76
2023/03/30 04:04:07;;;;;;;12.63;3.87;;;12.30;99.90;;;;;;487337;244;28851;-76
2023/03/30 04:06:08;;;;;;;18.73;4.27;;;12.40;99.90;;;;;;487277;244;28846;-75
2023/03/30 04:08:10;;;;;;;8.73;3.00;;;12.40;99.90;;;;;;487349;244;28612;-76
2023/03/30 04:10:11;;;;;;;11.27;3.40;;;12.40;99.90;;;;;;487342;244;28844;-76
2023/03/30 04:12:12;;;;;;;9.77;2.90;;;12.40;99.90;;;;;;487328;244;28209;-76
2023/03/30 04:14:13;;;;;;;8.47;2.73;;;12.50;99.90;;;;;;487292;244;28442;-76
2023/03/30 04:16:15;;;;;;;11.80;3.50;;;12.50;99.90;;;;;;487338;244;28216;-75
2023/03/30 04:18:16;;;;;;;10.40;3.37;;;12.40;99.90;;;;;;487343;243;28807;-76
2023/03/30 04:20:22;;;;;;;10.50;3.83;;;;;;;;;;487339;244;28872;-76
2023/03/30 04:22:23;;;;;;;9.60;2.90;;;12.30;99.90;;;;;;487068;243;26508;-76
2023/03/30 04:24:21;;;;;;;16.93;3.67;;;12.30;99.90;;;;;;487084;244;28212;-76
2023/03/30 04:26:22;;;;;;;12.90;3.13;;;12.30;99.90;;;;;;487332;244;28218;-76
2023/03/30 04:28:23;;;;;;;10.73;2.73;;;12.40;99.90;;;;;;487338;244;28488;-76
2023/03/30 04:30:25;;;;;;;8.83;3.27;;;12.40;99.90;;;;;;487347;244;28828;-76
2023/03/30 04:32:26;;;;;;;10.97;2.80;;;12.30;99.90;;;;;;487337;244;28753;-75
2023/03/30 04:34:29;;;;;;;9.33;3.03;;;12.40;99.90;;;;;;487304;244;28521;-75
2023/03/30 04:36:28;;;;;;;8.63;3.63;;;12.40;99.90;;;;;;487221;244;28751;-76
2023/03/30 04:38:30;;;;;;;11.73;3.20;;;12.50;99.90;;;;;;487347;244;28098;-76
2023/03/30 04:40:32;;;;;;;7.23;3.30;;;12.50;99.90;;;;;;487312;244;28473;-76
2023/03/30 04:42:36;;;;;;;12.63;3.00;;;12.50;99.90;;;;;;487228;244;28245;-76
2023/03/30 04:44:36;;;;;;;10.67;3.53;;;12.50;99.90;;;;;;487245;243;28451;-75
2023/03/30 04:46:38;;;;;;;7.10;3.10;;;12.40;99.90;;;;;;487373;244;28897;-76
2023/03/30 04:48:39;;;;;;;6.13;2.70;;;12.40;99.90;;;;;;487331;244;28306;-76
2023/03/30 04:50:40;;;;;;;6.40;3.23;;;12.40;99.90;;;;;;487325;244;28595;-76
2023/03/30 04:52:41;;;;;;;8.00;3.20;;;12.40;99.90;;;;;;487317;244;28349;-76
2023/03/30 04:54:43;;;;;;;9.13;2.83;;;12.40;99.90;;;;;;487300;244;28370;-76
2023/03/30 04:56:44;;;;;;;8.33;3.10;;;12.30;99.90;;;;;;487371;244;27980;-76
2023/03/30 04:58:45;;;;;;;10.50;4.37;;;12.30;99.90;;;;;;487348;244;28093;-76
2023/03/30 05:00:46;;;;;;;10.87;4.40;;;12.20;99.90;;;;;;487316;244;28469;-76
2023/03/30 05:02:48;;;;;;;5.30;2.80;;;12.20;99.90;;;;;;487366;244;28304;-75
2023/03/30 05:04:49;;;;;;;10.07;3.80;;;12.10;99.90;;;;;;487362;244;28321;-76
2023/03/30 05:06:51;;;;;;;11.90;3.67;;;;;;;;;;487374;244;28727;-75
2023/03/30 05:08:53;;;;;;;12.80;3.70;;;12.00;99.90;;;;;;487379;244;26624;-76
2023/03/30 05:10:54;;;;;;;10.70;3.77;;;11.90;99.90;;;;;;487119;244;28356;-76
2023/03/30 05:12:55;;;;;;;16.40;3.37;;;11.90;99.90;;;;;;487360;244;28834;-76
2023/03/30 05:14:56;;;;;;;12.80;4.27;;;11.80;99.90;;;;;;487317;244;28453;-76
2023/03/30 05:16:58;;;;;;;17.27;3.57;;;11.70;99.90;;;;;;487325;244;29317;-75
2023/03/30 05:18:59;;;;;;;11.10;4.03;;;11.70;99.90;;;;;;487383;244;28905;-76
2023/03/30 05:21:01;;;;;;;15.23;4.90;;;;;;;;;;487352;244;28964;-76
2023/03/30 05:23:02;;;;;;;20.00;3.93;;;11.60;99.90;;;;;;487399;244;27052;-76
2023/03/30 05:25:04;;;;;;;9.77;3.90;;;11.60;99.90;;;;;;487314;244;28226;-76
2023/03/30 05:27:05;;;;;;;9.10;3.73;;;11.50;99.90;;;;;;487369;244;28602;-76
2023/03/30 05:29:06;;;;;;;9.83;4.17;;;11.50;99.90;;;;;;487395;244;28784;-76
2023/03/30 05:31:07;;;;;;;9.10;3.60;;;11.50;99.90;;;;;;487396;244;28846;-76
2023/03/30 05:33:09;;;;;;;13.20;4.80;;;11.40;99.90;;;;;;487411;244;28345;-76
2023/03/30 05:35:11;;;;;;;12.13;4.00;;;11.40;99.90;;;;;;487357;244;28362;-76
2023/03/30 05:37:11;;;;;;;24.83;4.70;;;11.40;99.90;;;;;;487372;244;28331;-76
2023/03/30 05:39:13;;;;;;;12.83;4.50;;;11.40;99.90;;;;;;487442;244;28432;-76
2023/03/30 05:41:14;;;;;;;14.20;4.60;;;11.40;99.90;;;;;;487334;243;28268;-76
2023/03/30 05:43:15;;;;;;;17.70;4.87;;;11.30;99.90;;;;;;487384;244;28135;-75
2023/03/30 05:45:16;;;;;;;14.03;5.27;;;11.30;99.90;;;;;;487323;244;28262;-76
2023/03/30 05:47:18;;;;;;;11.63;4.40;;;11.30;99.90;;;;;;487376;244;28942;-76
2023/03/30 05:49:19;;;;;;;16.80;4.30;;;11.20;99.90;;;;;;487363;244;28885;-76
2023/03/30 05:51:20;;;;;;;12.53;4.00;;;11.20;99.90;;;;;;487384;244;28235;-76
2023/03/30 05:53:21;;;;;;;12.57;4.43;;;11.20;99.90;;;;;;487384;244;28083;-76
2023/03/30 05:55:23;;;;;;;14.10;5.00;;;11.20;99.90;;;;;;487316;243;28165;-75
2023/03/30 05:57:24;;;;;;;10.37;4.40;;;11.20;99.90;;;;;;487333;244;28220;-76
2023/03/30 05:59:25;;;;;;;10.37;3.83;;;11.20;99.90;;;;;;487347;244;28112;-76
2023/03/30 06:01:27;;;;;;;8.70;4.33;;;11.10;99.90;;;;;;487371;244;28711;-76
2023/03/30 06:03:28;;;;;;;11.50;4.17;;;11.20;99.90;;;;;;487367;244;28391;-76
2023/03/30 06:05:29;;;;;;;12.43;3.70;;;11.10;99.90;;;;;;487280;244;28595;-76
2023/03/30 06:07:30;;;;;;;10.97;4.07;;;11.10;99.90;;;;;;487348;244;28875;-76
2023/03/30 06:09:31;;;;;;;10.30;4.13;;;11.10;99.90;;;;;;487337;244;28336;-76
2023/03/30 06:11:33;;;;;;;9.30;3.70;;;11.10;99.90;;;;;;487352;244;28147;-76
2023/03/30 06:13:34;;;;;;;10.50;3.80;;;11.10;99.90;;;;;;487362;244;28280;-75
2023/03/30 06:15:35;;;;;;;6.87;3.50;;;11.10;99.90;;;;;;487272;244;28152;-76
2023/03/30 06:17:36;;;;;;;14.13;3.53;;;11.10;99.90;;;;;;487361;244;28218;-75
2023/03/30 06:19:38;;;;;;;10.83;3.60;;;11.10;99.90;;;;;;487305;244;28152;-75
2023/03/30 06:21:39;;;;;;;9.07;3.90;;;11.10;99.90;;;;;;487354;244;28310;-76
2023/03/30 06:23:41;;;;;;;5.80;3.50;;;11.00;99.90;;;;;;487328;244;28802;-76
2023/03/30 06:25:42;;;;;;;7.20;4.40;;;11.00;99.90;;;;;;487237;244;28604;-76
2023/03/30 06:27:43;;;;;;;4.77;3.00;;;11.00;99.90;;;;;;487319;244;28692;-76
2023/03/30 06:29:44;;;;;;;10.50;4.63;;;11.00;99.90;;;;;;487364;244;28612;-76
2023/03/30 06:31:46;;;;;;;7.33;4.13;;;11.00;99.90;;;;;;487362;244;28246;-76
2023/03/30 06:33:46;;;;;;;9.20;3.70;;;11.00;99.90;;;;;;487305;244;28233;-75
2023/03/30 06:35:48;;;;;;;7.20;3.93;;;11.00;99.90;;;;;;487296;244;28181;-76
2023/03/30 06:37:49;;;;;;;6.73;4.03;;;11.10;99.90;;;;;;487368;244;28023;-76
2023/03/30 06:39:50;;;;;;;11.53;3.83;;;11.10;99.90;;;;;;487339;244;28662;-76
2023/03/30 06:41:51;;;;;;;7.67;4.30;;;11.10;99.90;;;;;;487356;244;28914;-76
2023/03/30 06:43:53;;;;;;;5.70;3.83;;;11.10;99.90;;;;;;487358;244;28132;-75
2023/03/30 06:45:54;;;;;;;6.67;4.40;;;11.20;99.90;;;;;;487311;244;28365;-76
2023/03/30 06:47:55;;;;;;;10.93;4.40;;;11.20;99.90;;;;;;487354;244;28617;-76
2023/03/30 06:49:56;;;;;;;7.63;4.23;;;11.10;99.90;;;;;;487349;244;28644;-75
2023/03/30 06:51:58;;;;;;;9.60;4.33;;;11.10;99.90;;;;;;487394;244;28378;-76
2023/03/30 06:53:59;;;;;;;6.60;3.83;;;11.10;99.90;;;;;;487375;244;28328;-76
2023/03/30 06:56:00;;;;;;;6.87;3.90;;;11.10;99.90;;;;;;487326;244;28251;-76
2023/03/30 06:58:01;;;;;;;7.53;3.60;;;11.10;99.90;;;;;;487390;244;28125;-76
2023/03/30 07:00:08;;;;;;;10.73;4.53;;;11.10;99.90;;;;;;487367;244;28081;-75
2023/03/30 07:02:04;;;;;;;6.43;3.90;;;11.20;99.90;;;;;;487014;244;28259;-76
2023/03/30 07:04:06;;;;;;;5.60;4.03;;;11.20;99.90;;;;;;487312;244;28622;-76
2023/03/30 07:06:06;;;;;;;10.37;3.97;;;11.30;99.90;;;;;;487327;244;28660;-76
2023/03/30 07:08:08;;;;;;;9.20;4.10;;;11.30;99.90;;;;;;487338;244;28754;-76
2023/03/30 07:10:09;;;;;;;7.83;3.80;;;11.30;99.90;;;;;;487348;244;28197;-75
2023/03/30 07:12:10;;;;;;;6.37;3.73;;;11.30;99.90;;;;;;487363;244;28238;-76
2023/03/30 07:14:11;;;;;;;9.17;4.33;;;11.30;99.90;;;;;;487344;244;28205;-76
2023/03/30 07:16:13;;;;;;;8.00;3.83;;;11.30;99.90;;;;;;487338;244;28456;-76
2023/03/30 07:18:14;;;;;;;9.67;3.77;;;11.20;99.90;;;;;;487353;244;28189;-76
2023/03/30 07:20:15;;;;;;;10.00;4.47;;;11.20;99.90;;;;;;487359;244;28267;-76
2023/03/30 07:22:16;;;;;;;7.33;3.93;;;11.20;99.90;;;;;;487351;244;28598;-76
2023/03/30 07:24:18;;;;;;;5.70;3.83;;;11.20;99.90;;;;;;487325;244;28453;-76
2023/03/30 07:26:20;;;;;;;9.00;4.03;;;11.30;99.90;;;;;;487345;244;28511;-76
2023/03/30 07:28:21;;;;;;;7.83;4.07;;;11.40;99.90;;;;;;487337;244;28673;-75
2023/03/30 07:30:22;;;;;;;6.87;3.70;;;11.50;99.90;;;;;;487333;244;28863;-76
2023/03/30 07:32:24;;;;;;;9.13;3.20;;;;;;;;;;487356;244;28183;-77
2023/03/30 07:34:25;;;;;;;9.73;3.50;;;11.40;99.90;;;;;;487334;244;27028;-77
2023/03/30 07:36:26;;;;;;;4.13;3.23;;;11.30;99.90;;;;;;487349;244;29070;-76
2023/03/30 07:38:28;;;;;;;6.33;3.77;;;11.30;99.90;;;;;;487337;244;28655;-76
2023/03/30 07:40:29;;;;;;;11.20;3.60;;;11.30;99.90;;;;;;487363;244;28398;-76
2023/03/30 07:42:30;;;;;;;6.07;3.40;;;11.30;99.90;;;;;;487337;244;28172;-76
2023/03/30 07:44:31;;;;;;;7.10;3.00;;;11.30;99.90;;;;;;487307;244;28131;-76
2023/03/30 07:46:33;;;;;;;6.93;3.70;;;11.40;99.90;;;;;;487371;244;28311;-77
2023/03/30 07:48:35;;;;;;;5.73;3.27;;;;;;;;;;487350;244;28400;-76
2023/03/30 07:50:36;;;;;;;6.63;3.43;;;11.50;99.90;;;;;;487318;244;27678;-76
2023/03/30 07:52:38;;;;;;;8.17;3.67;;;11.60;99.90;;;;;;487345;244;28109;-76
2023/03/30 07:54:39;;;;;;;6.77;3.23;;;11.60;99.90;;;;;;487293;243;28477;-76
2023/03/30 07:56:41;;;;;;;9.57;3.73;;;11.80;99.90;;;;;;487341;244;28087;-75
2023/03/30 07:58:42;;;;;;;6.00;3.30;;;12.00;99.90;;;;;;487312;243;28884;-76
2023/03/30 08:00:43;;;;;;;4.77;2.97;;;12.10;99.90;;;;;;487349;244;27869;-76
2023/03/30 08:02:44;;;;;;;7.67;3.23;;;12.20;99.90;;;;;;487350;244;28025;-75
2023/03/30 08:04:45;;;;;;;8.50;3.77;;;12.30;99.90;;;;;;487269;244;28238;-75
2023/03/30 08:06:48;;;;;;;9.53;3.60;;;12.40;99.90;;;;;;487325;244;28131;-75
2023/03/30 08:08:48;;;;;;;5.07;3.17;;;12.40;99.90;;;;;;487283;244;28976;-76
2023/03/30 08:10:49;;;;;;;5.20;2.97;;;12.60;99.90;;;;;;487359;244;28841;-76
2023/03/30 08:12:50;;;;;;;7.00;2.70;;;12.80;99.90;;;;;;487339;244;28623;-76
2023/03/30 08:14:51;;;;;;;7.40;3.40;;;12.80;99.90;;;;;;487280;244;28196;-75
2023/03/30 08:16:53;;;;;;;4.40;3.40;;;12.70;99.90;;;;;;487357;244;28205;-76
2023/03/30 08:18:54;;;;;;;8.60;3.30;;;12.60;99.90;;;;;;487364;244;28214;-76
2023/03/30 08:20:55;;;;;;;9.63;3.37;;;12.30;99.90;;;;;;487360;244;28235;-76
2023/03/30 08:22:56;;;;;;;4.90;3.20;;;12.30;99.90;;;;;;487340;244;28323;-76
2023/03/30 08:24:59;;;;;;;6.80;3.70;;;;;;;;;;487304;244;28850;-75
2023/03/30 08:27:00;;;;;;;9.43;3.87;;;12.10;99.90;;;;;;487357;244;26623;-76
2023/03/30 08:29:02;;;;;;;7.50;3.37;;;12.20;99.90;;;;;;487348;244;28018;-76
2023/03/30 08:31:03;;;;;;;4.13;3.10;;;12.30;99.90;;;;;;487216;244;28126;-77
2023/03/30 08:33:04;;;;;;;6.20;3.50;;;12.50;99.90;;;;;;487332;244;28170;-76
2023/03/30 08:35:05;;;;;;;7.00;3.10;;;12.60;99.90;;;;;;487301;244;28140;-76
2023/03/30 08:37:06;;;;;;;9.97;3.23;;;12.60;99.90;;;;;;487398;244;28795;-77
2023/03/30 08:39:09;;;;;;;12.13;3.50;;;12.60;99.90;;;;;;487352;244;28113;-76
2023/03/30 08:41:09;;;;;;;4.70;3.00;;;12.60;99.90;;;;;;487302;244;28229;-76
2023/03/30 08:43:10;;;;;;;6.80;3.30;;;12.70;99.90;;;;;;487381;244;28663;-77
2023/03/30 08:45:12;;;;;;;5.93;3.00;;;12.70;99.90;;;;;;487281;244;28759;-76
2023/03/30 08:47:13;;;;;;;7.80;3.40;;;12.70;99.90;;;;;;487375;244;28739;-76
2023/03/30 08:49:14;;;;;;;4.03;3.10;;;12.70;99.90;;;;;;487369;244;28258;-76
2023/03/30 08:51:15;;;;;;;5.00;3.40;;;12.50;99.90;;;;;;487352;244;28367;-76
2023/03/30 08:53:16;;;;;;;4.83;3.00;;;12.50;99.90;;;;;;487350;244;28223;-75
2023/03/30 08:55:18;;;;;;;5.40;3.10;;;12.60;99.90;;;;;;487277;244;28235;-76
2023/03/30 08:57:19;;;;;;;5.50;3.30;;;12.60;99.90;;;;;;487367;244;28389;-76
2023/03/30 08:59:20;;;;;;;6.67;3.27;;;12.50;99.90;;;;;;487338;244;28225;-76
2023/03/30 09:01:21;;;;;;;4.80;3.30;;;12.40;99.90;;;;;;487338;244;28341;-76
2023/03/30 09:03:23;;;;;;;9.93;3.80;;;12.20;99.90;;;;;;487334;244;28241;-76
2023/03/30 09:05:24;;;;;;;6.60;3.20;;;12.20;99.90;;;;;;487278;243;28136;-76
2023/03/30 09:07:27;;;;;;;5.97;3.60;;;;;;;;;;487323;244;29280;-75
2023/03/30 09:09:28;;;;;;;5.73;3.13;;;11.90;99.90;;;;;;487242;243;26533;-75
2023/03/30 09:11:30;;;;;;;4.07;3.03;;;;;;;;;;487240;244;28290;-76
2023/03/30 09:13:32;;;;;;;11.00;3.43;;;;;;;;;;487255;244;27064;-75
2023/03/30 09:15:35;;;;;;;5.50;3.23;;;11.90;99.90;;;;;;487235;244;26571;-76
2023/03/30 09:17:35;;;;;;;6.73;3.00;;;12.10;99.90;;;;;;487218;244;28287;-76
2023/03/30 09:19:36;;;;;;;7.90;3.17;;;12.30;99.90;;;;;;487295;244;28899;-76
2023/03/30 09:21:37;;;;;;;8.83;3.60;;;12.40;99.90;;;;;;487312;244;28735;-76
2023/03/30 09:23:39;;;;;;;7.50;3.23;;;12.40;99.90;;;;;;487295;244;28853;-76
2023/03/30 09:25:40;;;;;;;7.10;3.50;;;12.30;99.90;;;;;;487269;244;28646;-77
2023/03/30 09:27:45;;;;;;;4.93;3.10;;;12.30;99.90;;;;;;486649;244;47205;-76
2023/03/30 09:29:48;;;;;;;7.03;3.67;;;;;;;;;;487364;244;26854;-76
2023/03/30 09:31:49;;;;;;;4.63;3.03;;;12.30;99.90;;;;;;487363;244;27453;-75
2023/03/30 09:33:50;;;;;;;5.27;3.07;;;12.40;99.90;;;;;;487343;244;28601;-76
2023/03/30 09:35:51;;;;;;;4.33;3.17;;;12.30;99.90;;;;;;487316;244;28072;-76
2023/03/30 09:37:52;;;;;;;5.43;3.40;;;12.30;99.90;;;;;;487310;244;28210;-75
2023/03/30 09:39:54;;;;;;;6.70;3.30;;;12.30;99.90;;;;;;487318;244;28100;-76
2023/03/30 09:41:55;;;;;;;9.13;3.67;;;12.40;99.90;;;;;;487348;244;28010;-76
2023/03/30 09:43:56;;;;;;;3.97;2.80;;;12.50;99.90;;;;;;487323;244;28309;-76
2023/03/30 09:45:57;;;;;;;5.67;3.23;;;12.50;99.90;;;;;;487302;244;28232;-76
2023/03/30 09:47:59;;;;;;;11.43;4.03;;;12.60;99.90;;;;;;487355;244;28361;-75
2023/03/30 09:50:00;;;;;;;6.93;3.47;;;12.70;99.90;;;;;;487324;244;28176;-76
2023/03/30 09:52:02;;;;;;;5.90;3.43;;;12.80;99.90;;;;;;487352;244;28151;-76
2023/03/30 09:54:03;;;;;;;5.10;3.10;;;12.80;99.90;;;;;;487340;244;28714;-77
2023/03/30 09:56:05;;;;;;;6.10;3.27;;;12.90;99.90;;;;;;487268;244;28807;-76
2023/03/30 09:58:05;;;;;;;4.57;2.90;;;13.00;99.90;;;;;;487264;244;28957;-76
2023/03/30 10:00:08;;;;;;;4.30;3.00;;;13.10;99.90;;;;;;487291;244;28117;-76
2023/03/30 10:02:08;;;;;;;5.37;2.93;;;13.20;99.90;;;;;;487331;244;28433;-75
2023/03/30 10:04:09;;;;;;;5.70;3.00;;;13.10;99.90;;;;;;487351;244;28818;-77
2023/03/30 10:06:11;;;;;;;6.90;3.17;;;13.10;99.90;;;;;;487349;244;28322;-75
2023/03/30 10:08:11;;;;;;;5.23;3.13;;;13.10;99.90;;;;;;487265;244;28403;-75
2023/03/30 10:10:12;;;;;;;6.53;3.40;;;12.90;99.90;;;;;;487360;244;28172;-76
2023/03/30 10:12:14;;;;;;;4.97;3.10;;;12.80;99.90;;;;;;487372;244;28347;-75
2023/03/30 10:14:15;;;;;;;4.20;3.60;;;12.70;99.90;;;;;;487386;244;28450;-76
2023/03/30 10:16:16;;;;;;;6.50;3.50;;;12.60;99.90;;;;;;487294;244;28141;-76
2023/03/30 10:18:18;;;;;;;6.17;3.27;;;12.60;99.90;;;;;;487370;244;28845;-75
2023/03/30 10:20:19;;;;;;;5.90;3.80;;;12.60;99.90;;;;;;487331;244;29287;-75
2023/03/30 10:22:21;;;;;;;6.93;3.53;;;12.70;99.90;;;;;;487354;244;28586;-75
2023/03/30 10:24:21;;;;;;;5.43;3.10;;;12.70;99.90;;;;;;487273;244;28153;-76
2023/03/30 10:26:22;;;;;;;9.97;3.57;;;12.70;99.90;;;;;;487354;244;28105;-75
2023/03/30 10:28:24;;;;;;;7.07;3.63;;;12.70;99.90;;;;;;487339;244;28145;-76
2023/03/30 10:30:27;;;;;;;8.03;3.70;;;12.60;99.90;;;;;;487351;243;28221;-76
2023/03/30 10:32:26;;;;;;;10.00;3.60;;;12.70;99.90;;;;;;487283;244;28302;-75